createdAt,value
2023-02-16T00:00:19.523Z,-0.05
2023-02-16T00:03:22.635Z,-0.03
2023-02-16T00:06:26.367Z,-0.22
2023-02-16T00:09:28.888Z,-0.26
2023-02-16T00:12:49.591Z,-0.14
2023-02-16T00:15:52.247Z,-0.18
2023-02-16T00:18:54.511Z,-0.20
2023-02-16T00:21:59.077Z,-0.24
2023-02-16T00:25:01.312Z,-0.31
2023-02-16T00:28:08.000Z,-0.27
2023-02-16T00:31:22.266Z,-0.35
2023-02-16T00:34:32.938Z,-0.44
2023-02-16T00:37:35.143Z,-0.36
2023-02-16T00:40:38.016Z,-0.50
2023-02-16T00:43:41.292Z,-0.46
2023-02-16T00:46:45.049Z,-0.48
2023-02-16T00:49:53.245Z,-0.48
2023-02-16T00:52:58.342Z,-0.47
2023-02-16T00:56:00.880Z,-0.40
2023-02-16T00:59:06.174Z,-0.32
2023-02-16T01:02:08.457Z,-0.31
2023-02-16T01:05:11.345Z,-0.39
2023-02-16T01:08:35.026Z,-0.47
2023-02-16T01:11:39.289Z,-0.47
2023-02-16T01:14:41.562Z,-0.48
2023-02-16T01:17:44.381Z,-0.55
2023-02-16T01:20:47.645Z,-0.64
2023-02-16T01:23:50.273Z,-0.70
2023-02-16T01:26:54.458Z,-0.80
2023-02-16T01:29:56.970Z,-0.84
2023-02-16T01:32:59.211Z,-0.73
2023-02-16T01:36:01.686Z,-0.74
2023-02-16T01:39:04.916Z,-0.95
2023-02-16T01:42:30.749Z,-0.86
2023-02-16T01:45:37.917Z,-0.95
2023-02-16T01:48:41.157Z,-0.97
2023-02-16T01:52:11.957Z,-1.02
2023-02-16T01:55:24.745Z,-0.92
2023-02-16T01:58:34.548Z,-0.96
2023-02-16T02:01:36.966Z,-0.95
2023-02-16T02:05:15.824Z,-1.00
2023-02-16T02:08:33.363Z,-1.00
2023-02-16T02:11:42.468Z,-1.18
2023-02-16T02:14:45.018Z,-1.13
2023-02-16T02:17:48.571Z,-1.09
2023-02-16T02:21:41.145Z,-1.10
2023-02-16T02:25:15.741Z,-1.15
2023-02-16T02:28:32.381Z,-1.22
2023-02-16T02:31:50.435Z,-1.27
2023-02-16T02:34:53.024Z,-1.28
2023-02-16T02:38:26.440Z,-1.28
2023-02-16T02:42:06.193Z,-1.38
2023-02-16T02:45:18.608Z,-1.35
2023-02-16T02:48:22.458Z,-1.20
2023-02-16T02:51:30.888Z,-1.06
2023-02-16T02:54:59.049Z,-0.99
2023-02-16T02:58:20.769Z,-0.99
2023-02-16T03:01:25.020Z,-1.09
2023-02-16T03:04:31.122Z,-1.15
2023-02-16T03:07:48.736Z,-1.27
2023-02-16T03:11:19.285Z,-1.23
2023-02-16T03:14:48.039Z,-1.18
2023-02-16T03:18:13.338Z,-1.20
2023-02-16T03:21:35.180Z,-1.29
2023-02-16T03:24:56.307Z,-1.25
2023-02-16T03:28:21.336Z,-1.31
2023-02-16T03:31:30.205Z,-1.46
2023-02-16T03:34:35.852Z,-1.37
2023-02-16T03:37:39.418Z,-1.36
2023-02-16T03:40:45.008Z,-1.58
2023-02-16T03:43:47.155Z,-1.62
2023-02-16T03:46:50.408Z,-1.64
2023-02-16T03:49:52.594Z,-1.64
2023-02-16T03:53:06.730Z,-1.53
2023-02-16T03:56:09.068Z,-1.53
2023-02-16T03:59:11.518Z,-1.46
2023-02-16T04:02:13.812Z,-1.38
2023-02-16T04:05:16.323Z,-1.38
2023-02-16T04:08:18.573Z,-1.39
2023-02-16T04:11:39.868Z,-1.44
2023-02-16T04:14:43.692Z,-1.30
2023-02-16T04:17:46.801Z,-1.36
2023-02-16T04:20:49.045Z,-1.41
2023-02-16T04:23:51.510Z,-1.38
2023-02-16T04:26:53.641Z,-1.40
2023-02-16T04:29:56.045Z,-1.45
2023-02-16T04:32:59.577Z,-1.51
2023-02-16T04:36:02.165Z,-1.52
2023-02-16T04:39:04.763Z,-1.60
2023-02-16T04:42:07.309Z,-1.58
2023-02-16T04:45:10.651Z,-1.62
2023-02-16T04:48:13.050Z,-1.67
2023-02-16T04:51:15.282Z,-1.70
2023-02-16T04:54:17.712Z,-1.75
2023-02-16T04:57:21.397Z,-1.76
2023-02-16T05:00:24.079Z,-1.85
2023-02-16T05:03:26.251Z,-1.83
2023-02-16T05:06:28.710Z,-1.93
2023-02-16T05:09:30.891Z,-1.88
2023-02-16T05:12:51.864Z,-1.98
2023-02-16T05:15:54.096Z,-1.95
2023-02-16T05:18:58.906Z,-1.94
2023-02-16T05:22:01.168Z,-1.85
2023-02-16T05:25:03.864Z,-1.89
2023-02-16T05:28:06.184Z,-1.82
2023-02-16T05:31:08.716Z,-1.89
2023-02-16T05:34:11.058Z,-1.86
2023-02-16T05:37:15.218Z,-1.92
2023-02-16T05:40:17.538Z,-1.96
2023-02-16T05:43:19.988Z,-1.98
2023-02-16T05:46:24.588Z,-2.01
2023-02-16T05:49:27.104Z,-2.03
2023-02-16T05:52:29.270Z,-2.02
2023-02-16T05:55:31.703Z,-2.04
2023-02-16T05:58:33.925Z,-2.00
2023-02-16T06:01:36.365Z,-2.09
2023-02-16T06:04:39.383Z,-2.03
2023-02-16T06:07:41.514Z,-2.06
2023-02-16T06:10:43.989Z,-2.10
2023-02-16T06:13:46.166Z,-2.05
2023-02-16T06:16:51.490Z,-2.12
2023-02-16T06:19:54.253Z,-2.19
2023-02-16T06:22:56.819Z,-2.16
2023-02-16T06:25:58.987Z,-2.13
2023-02-16T06:29:01.557Z,-2.20
2023-02-16T06:32:04.235Z,-2.03
2023-02-16T06:35:07.015Z,-1.96
2023-02-16T06:38:09.118Z,-1.93
2023-02-16T06:41:11.708Z,-1.87
2023-02-16T06:44:15.803Z,-1.83
2023-02-16T06:47:18.255Z,-1.73
2023-02-16T06:50:20.543Z,-1.61
2023-02-16T06:53:23.060Z,-1.62
2023-02-16T06:56:25.432Z,-1.63
2023-02-16T06:59:27.876Z,-1.61
2023-02-16T07:02:30.019Z,-1.52
2023-02-16T07:05:32.494Z,-1.52
2023-02-16T07:08:35.895Z,-1.51
2023-02-16T07:11:38.740Z,-1.45
2023-02-16T07:14:43.071Z,-1.33
2023-02-16T07:17:46.352Z,-1.24
2023-02-16T07:20:49.075Z,-1.27
2023-02-16T07:23:51.607Z,-1.14
2023-02-16T07:26:55.047Z,-1.05
2023-02-16T07:29:57.567Z,-0.93
2023-02-16T07:32:59.874Z,-0.93
2023-02-16T07:36:03.318Z,-0.83
2023-02-16T07:39:05.658Z,-0.78
2023-02-16T07:42:08.079Z,-0.72
2023-02-16T07:45:10.236Z,-0.69
2023-02-16T07:48:13.912Z,-0.57
2023-02-16T07:51:30.765Z,-0.52
2023-02-16T07:54:33.532Z,-0.43
2023-02-16T07:57:38.759Z,-0.28
2023-02-16T08:00:41.228Z,-0.21
2023-02-16T08:03:43.775Z,-0.10
2023-02-16T08:06:48.588Z,0.01
2023-02-16T08:09:51.196Z,0.11
2023-02-16T08:12:53.355Z,0.19
2023-02-16T08:15:55.779Z,0.26
2023-02-16T08:18:59.961Z,0.33
2023-02-16T08:22:02.809Z,0.45
2023-02-16T08:25:06.887Z,0.57
2023-02-16T08:28:09.680Z,0.67
2023-02-16T08:31:20.086Z,0.78
2023-02-16T08:34:24.079Z,0.86
2023-02-16T08:37:26.288Z,0.96
2023-02-16T08:40:30.159Z,1.07
2023-02-16T08:43:32.508Z,1.15
2023-02-16T08:46:37.187Z,1.39
2023-02-16T08:49:39.602Z,1.54
2023-02-16T08:52:42.077Z,1.82
2023-02-16T08:55:51.593Z,2.14
2023-02-16T08:58:54.057Z,2.54
2023-02-16T09:01:58.154Z,2.82
2023-02-16T09:05:01.117Z,3.23
2023-02-16T09:08:03.464Z,3.64
2023-02-16T09:11:08.926Z,4.01
2023-02-16T09:14:11.133Z,4.34
2023-02-16T09:17:14.301Z,4.69
2023-02-16T09:20:17.223Z,5.04
2023-02-16T09:23:20.537Z,5.41
2023-02-16T09:26:24.680Z,5.66
2023-02-16T09:29:27.178Z,5.80
2023-02-16T09:32:30.615Z,6.01
2023-02-16T09:35:33.085Z,5.92
2023-02-16T09:38:36.686Z,5.96
2023-02-16T09:42:05.559Z,5.88
2023-02-16T09:45:20.418Z,5.89
2023-02-16T09:48:37.379Z,5.80
2023-02-16T09:51:44.612Z,5.88
2023-02-16T09:54:51.857Z,5.82
2023-02-16T09:58:21.553Z,5.97
2023-02-16T10:01:47.810Z,5.88
2023-02-16T10:05:04.504Z,5.77
2023-02-16T10:08:13.307Z,5.86
2023-02-16T10:11:48.825Z,5.94
2023-02-16T10:15:01.370Z,5.98
2023-02-16T10:18:16.405Z,6.00
2023-02-16T10:21:26.295Z,6.17
2023-02-16T10:24:34.568Z,6.32
2023-02-16T10:27:45.701Z,6.42
2023-02-16T10:31:01.472Z,6.55
2023-02-16T10:34:06.805Z,6.66
2023-02-16T10:37:47.617Z,6.74
2023-02-16T10:41:01.434Z,6.82
2023-02-16T10:44:22.723Z,6.83
2023-02-16T10:47:36.828Z,6.98
2023-02-16T10:50:42.121Z,7.26
2023-02-16T10:53:50.948Z,7.38
2023-02-16T10:56:59.502Z,7.42
2023-02-16T11:00:06.736Z,7.52
2023-02-16T11:03:12.588Z,7.52
2023-02-16T11:06:17.955Z,7.60
2023-02-16T11:09:27.859Z,7.60
2023-02-16T11:12:33.443Z,7.50
2023-02-16T11:15:39.235Z,7.68
2023-02-16T11:18:45.385Z,7.79
2023-02-16T11:21:55.214Z,7.75
2023-02-16T11:25:22.561Z,7.77
2023-02-16T11:28:48.581Z,7.86
2023-02-16T11:31:50.857Z,7.92
2023-02-16T11:34:53.818Z,8.02
2023-02-16T11:37:56.073Z,8.20
2023-02-16T11:41:00.774Z,8.02
2023-02-16T11:44:04.103Z,7.84
2023-02-16T11:47:21.287Z,7.97
2023-02-16T11:50:38.434Z,8.11
2023-02-16T11:53:43.387Z,8.07
2023-02-16T11:57:02.394Z,8.18
2023-02-16T12:00:19.254Z,8.53
2023-02-16T12:03:31.456Z,8.74
2023-02-16T12:06:49.880Z,8.93
2023-02-16T12:10:31.283Z,9.11
2023-02-16T12:13:58.340Z,9.09
2023-02-16T12:17:07.862Z,8.86
2023-02-16T12:20:28.249Z,8.77
2023-02-16T12:23:39.881Z,8.76
2023-02-16T12:26:52.024Z,8.78
2023-02-16T12:30:03.196Z,8.96
2023-02-16T12:33:13.480Z,9.04
2023-02-16T12:36:25.489Z,9.11
2023-02-16T12:39:55.352Z,9.13
2023-02-16T12:43:22.505Z,9.11
2023-02-16T12:46:30.513Z,9.01
2023-02-16T12:49:55.152Z,9.07
2023-02-16T12:53:03.497Z,9.22
2023-02-16T12:56:14.440Z,9.28
2023-02-16T12:59:24.940Z,9.13
2023-02-16T13:02:43.216Z,9.20
2023-02-16T13:05:51.234Z,9.22
2023-02-16T13:09:16.216Z,9.51
2023-02-16T13:12:31.507Z,9.55
2023-02-16T13:15:38.272Z,9.42
2023-02-16T13:18:44.288Z,9.37
2023-02-16T13:21:52.806Z,9.52
2023-02-16T13:25:04.110Z,9.68
2023-02-16T13:28:23.081Z,9.98
2023-02-16T13:31:49.261Z,10.23
2023-02-16T13:35:30.138Z,11.02
2023-02-16T13:38:43.634Z,11.05
2023-02-16T13:42:13.232Z,10.77
2023-02-16T13:45:22.933Z,10.48
2023-02-16T13:48:39.339Z,10.57
2023-02-16T13:51:47.170Z,10.39
2023-02-16T13:54:50.050Z,10.23
2023-02-16T13:58:01.695Z,10.35
2023-02-16T14:01:39.105Z,10.42
2023-02-16T14:04:50.393Z,10.50
2023-02-16T14:08:11.845Z,10.43
2023-02-16T14:11:14.274Z,10.40
2023-02-16T14:14:28.626Z,10.42
2023-02-16T14:17:37.400Z,10.45
2023-02-16T14:20:39.624Z,10.41
2023-02-16T14:23:42.825Z,10.26
2023-02-16T14:26:59.445Z,10.21
2023-02-16T14:30:04.398Z,9.94
2023-02-16T14:33:12.445Z,9.88
2023-02-16T14:36:16.636Z,9.84
2023-02-16T14:39:24.756Z,9.91
2023-02-16T14:42:34.925Z,9.85
2023-02-16T14:45:59.096Z,10.03
2023-02-16T14:49:04.994Z,10.17
2023-02-16T14:52:37.145Z,10.07
2023-02-16T14:56:06.660Z,10.21
2023-02-16T14:59:32.789Z,10.11
2023-02-16T15:02:40.812Z,9.77
2023-02-16T15:05:49.458Z,9.73
2023-02-16T15:08:59.284Z,9.52
2023-02-16T15:12:23.048Z,9.38
2023-02-16T15:15:44.032Z,9.33
2023-02-16T15:18:53.468Z,9.27
2023-02-16T15:22:19.277Z,9.12
2023-02-16T15:25:34.717Z,9.07
2023-02-16T15:28:39.631Z,9.12
2023-02-16T15:31:41.997Z,8.90
2023-02-16T15:34:45.243Z,8.89
2023-02-16T15:37:47.799Z,8.78
2023-02-16T15:40:55.134Z,8.76
2023-02-16T15:43:58.711Z,8.74
2023-02-16T15:47:37.375Z,8.63
2023-02-16T15:50:39.728Z,8.49
2023-02-16T15:53:45.112Z,8.48
2023-02-16T15:56:48.986Z,8.41
2023-02-16T15:59:57.060Z,8.29
2023-02-16T16:03:01.087Z,8.15
2023-02-16T16:06:08.508Z,8.09
2023-02-16T16:09:27.769Z,8.00
2023-02-16T16:12:30.838Z,7.97
2023-02-16T16:15:45.254Z,7.85
2023-02-16T16:18:50.995Z,7.89
2023-02-16T16:21:54.673Z,7.86
2023-02-16T16:24:57.243Z,7.80
2023-02-16T16:27:59.963Z,7.72
2023-02-16T16:31:26.012Z,7.60
2023-02-16T16:34:34.230Z,7.53
2023-02-16T16:37:37.284Z,7.39
2023-02-16T16:40:40.063Z,7.28
2023-02-16T16:43:53.816Z,7.22
2023-02-16T16:46:56.254Z,7.13
2023-02-16T16:50:05.978Z,7.14
2023-02-16T16:53:43.121Z,7.16
2023-02-16T16:56:45.550Z,7.06
2023-02-16T16:59:47.724Z,7.01
2023-02-16T17:02:50.183Z,6.98
2023-02-16T17:05:52.488Z,7.00
2023-02-16T17:08:55.250Z,7.02
2023-02-16T17:11:58.439Z,6.96
2023-02-16T17:15:01.707Z,6.91
2023-02-16T17:18:04.842Z,6.87
2023-02-16T17:21:07.580Z,6.94
2023-02-16T17:24:10.263Z,6.90
2023-02-16T17:27:13.884Z,6.84
2023-02-16T17:30:16.226Z,6.88
2023-02-16T17:33:18.755Z,6.96
2023-02-16T17:36:22.583Z,6.90
2023-02-16T17:39:25.276Z,6.82
2023-02-16T17:42:28.323Z,6.77
2023-02-16T17:45:30.969Z,6.69
2023-02-16T17:48:33.309Z,6.73
2023-02-16T17:51:36.503Z,6.73
2023-02-16T17:54:39.132Z,6.78
2023-02-16T17:57:41.680Z,6.60
2023-02-16T18:00:45.111Z,6.48
2023-02-16T18:03:47.689Z,6.46
2023-02-16T18:06:50.764Z,6.50
2023-02-16T18:09:54.155Z,6.50
2023-02-16T18:12:56.311Z,6.51
2023-02-16T18:16:01.786Z,6.40
2023-02-16T18:19:04.508Z,6.31
2023-02-16T18:22:06.925Z,6.21
2023-02-16T18:25:09.217Z,6.16
2023-02-16T18:28:20.183Z,6.03
2023-02-16T18:31:22.472Z,5.93
2023-02-16T18:34:26.292Z,5.87
2023-02-16T18:37:28.838Z,5.72
2023-02-16T18:40:31.266Z,5.71
2023-02-16T18:43:35.760Z,5.64
2023-02-16T18:46:38.469Z,5.50
2023-02-16T18:49:41.842Z,5.40
2023-02-16T18:52:44.934Z,5.40
2023-02-16T18:55:47.153Z,5.31
2023-02-16T18:58:49.582Z,5.22
2023-02-16T19:01:56.273Z,5.27
2023-02-16T19:04:58.685Z,5.15
2023-02-16T19:08:00.911Z,5.02
2023-02-16T19:11:03.444Z,4.80
2023-02-16T19:14:05.625Z,4.69
2023-02-16T19:17:08.343Z,4.69
2023-02-16T19:20:14.485Z,4.67
2023-02-16T19:23:17.575Z,4.51
2023-02-16T19:26:20.031Z,4.48
2023-02-16T19:29:22.511Z,4.44
2023-02-16T19:32:24.738Z,4.52
2023-02-16T19:35:27.213Z,4.46
2023-02-16T19:38:29.687Z,4.44
2023-02-16T19:41:35.711Z,4.42
2023-02-16T19:44:39.308Z,4.51
2023-02-16T19:47:41.821Z,4.48
2023-02-16T19:50:44.438Z,4.54
2023-02-16T19:53:47.499Z,4.40
2023-02-16T19:56:49.652Z,4.37
2023-02-16T19:59:52.070Z,4.35
2023-02-16T20:02:54.301Z,4.24
2023-02-16T20:05:56.711Z,4.22
2023-02-16T20:09:00.752Z,4.13
2023-02-16T20:12:04.625Z,4.18
2023-02-16T20:15:07.065Z,4.15
2023-02-16T20:18:10.120Z,4.00
2023-02-16T20:21:20.905Z,3.93
2023-02-16T20:24:23.330Z,3.86
2023-02-16T20:27:27.737Z,3.83
2023-02-16T20:30:30.744Z,3.78
2023-02-16T20:33:32.949Z,3.74
2023-02-16T20:36:36.462Z,3.70
2023-02-16T20:39:38.638Z,3.64
2023-02-16T20:42:41.091Z,3.55
2023-02-16T20:45:43.313Z,3.53
2023-02-16T20:48:46.225Z,3.52
2023-02-16T20:51:48.466Z,3.40
2023-02-16T20:54:50.902Z,3.21
2023-02-16T20:57:53.115Z,3.23
2023-02-16T21:00:55.973Z,3.17
2023-02-16T21:03:59.915Z,3.08
2023-02-16T21:07:02.384Z,3.07
2023-02-16T21:10:07.590Z,3.10
2023-02-16T21:13:10.100Z,3.05
2023-02-16T21:16:14.113Z,3.03
2023-02-16T21:19:22.911Z,3.00
2023-02-16T21:22:25.634Z,2.98
2023-02-16T21:25:28.087Z,2.99
2023-02-16T21:28:30.421Z,2.97
2023-02-16T21:31:32.860Z,2.99
2023-02-16T21:34:35.406Z,2.91
2023-02-16T21:37:38.672Z,2.99
2023-02-16T21:41:12.934Z,2.96
2023-02-16T21:44:18.241Z,2.95
2023-02-16T21:47:39.173Z,3.03
2023-02-16T21:50:42.112Z,3.01
2023-02-16T21:53:44.344Z,3.04
2023-02-16T21:56:50.322Z,3.01
2023-02-16T21:59:52.713Z,2.95
2023-02-16T22:02:55.142Z,2.81
2023-02-16T22:06:02.375Z,2.82
2023-02-16T22:09:10.400Z,2.78
2023-02-16T22:12:12.864Z,2.80
2023-02-16T22:15:15.072Z,2.84
2023-02-16T22:18:17.444Z,2.88
2023-02-16T22:21:19.658Z,2.91
2023-02-16T22:24:22.077Z,2.84
2023-02-16T22:27:24.237Z,2.80
2023-02-16T22:30:26.743Z,2.75
2023-02-16T22:33:28.915Z,2.72
2023-02-16T22:36:31.500Z,2.73
2023-02-16T22:39:33.669Z,2.79
2023-02-16T22:42:38.648Z,2.82
2023-02-16T22:45:40.822Z,2.78
2023-02-16T22:48:44.597Z,2.79
2023-02-16T22:51:46.759Z,2.85
2023-02-16T22:54:52.284Z,2.91
2023-02-16T22:57:54.447Z,2.89
2023-02-16T23:00:56.886Z,2.90
2023-02-16T23:04:00.784Z,2.93
2023-02-16T23:07:03.266Z,2.98
2023-02-16T23:10:06.060Z,2.97
2023-02-16T23:13:09.492Z,2.95
2023-02-16T23:16:14.825Z,3.04
2023-02-16T23:19:21.456Z,3.12
2023-02-16T23:22:23.587Z,3.08
2023-02-16T23:25:35.462Z,3.00
2023-02-16T23:28:39.296Z,2.99
2023-02-16T23:31:43.897Z,2.81
2023-02-16T23:34:46.035Z,2.82
2023-02-16T23:37:48.541Z,2.79
2023-02-16T23:41:16.863Z,2.85
2023-02-16T23:44:19.314Z,2.78
2023-02-16T23:47:22.444Z,2.72
2023-02-16T23:50:25.041Z,2.84
2023-02-16T23:53:28.380Z,2.90
2023-02-16T23:56:30.968Z,2.79
2023-02-16T23:59:33.794Z,2.64
